Time;durP1;ratioP1;P1;durP2;ratioP2;P2;SDS_P1;SDS_P2;PMS_P1;PMS_P2;Temp;Humidity;BMP_temperature;BMP_pressure;BME280_temperature;BME280_humidity;BME280_pressure;Samples;Min_cycle;Max_cycle;Signal;HPM_P1;HPM_P2
2023/11/17 00:01:30;;;;;;;21.95;4.18;;;7.50;99.90;;;;;;5046264;28;20037;-77
2023/11/17 00:03:56;;;;;;;11.07;3.08;;;7.50;99.90;;;;;;5046318;28;20035;-77
2023/11/17 00:06:24;;;;;;;26.40;6.30;;;7.40;99.90;;;;;;5046058;28;20026;-77
2023/11/17 00:08:50;;;;;;;12.00;3.83;;;7.40;99.90;;;;;;5046742;28;20029;-78
2023/11/17 00:11:16;;;;;;;11.98;3.05;;;7.30;99.90;;;;;;5045996;28;20226;-77
2023/11/17 00:13:42;;;;;;;16.80;2.83;;;7.30;99.90;;;;;;5046567;28;20033;-77
2023/11/17 00:16:08;;;;;;;10.20;2.17;;;7.20;99.90;;;;;;5047333;28;20036;-77
2023/11/17 00:18:34;;;;;;;14.38;2.47;;;7.20;99.90;;;;;;5029250;28;20029;-77
2023/11/17 00:21:00;;;;;;;13.95;2.63;;;7.20;99.90;;;;;;5045823;28;20034;-77
2023/11/17 00:23:27;;;;;;;8.73;3.20;;;7.20;99.90;;;;;;5045781;28;20017;-77
2023/11/17 00:25:56;;;;;;;10.40;2.80;;;7.20;99.90;;;;;;5045832;28;20280;-76
2023/11/17 00:28:22;;;;;;;15.52;3.08;;;7.30;99.90;;;;;;5045568;28;20041;-78
2023/11/17 00:30:48;;;;;;;7.05;1.95;;;7.30;99.90;;;;;;5046237;28;20067;-77
2023/11/17 00:33:14;;;;;;;6.95;1.70;;;7.30;99.90;;;;;;5046603;28;20180;-77
2023/11/17 00:35:40;;;;;;;7.32;1.92;;;7.20;99.90;;;;;;5045574;28;20033;-77
2023/11/17 00:38:06;;;;;;;8.85;2.10;;;7.20;99.90;;;;;;5046483;28;20313;-77
2023/11/17 00:40:35;;;;;;;11.38;2.38;;;7.20;99.90;;;;;;5046339;28;20030;-77
2023/11/17 00:43:04;;;;;;;11.98;2.05;;;7.20;99.90;;;;;;5045311;28;20045;-77
2023/11/17 00:45:30;;;;;;;9.05;2.30;;;7.20;99.90;;;;;;5045420;28;20032;-77
2023/11/17 00:47:55;;;;;;;11.00;2.15;;;7.20;99.90;;;;;;5028617;28;20348;-74
2023/11/17 00:50:22;;;;;;;13.23;2.25;;;7.10;99.90;;;;;;5045265;28;20041;-77
2023/11/17 00:52:48;;;;;;;9.32;2.70;;;7.10;99.90;;;;;;5045231;28;20313;-77
2023/11/17 00:55:14;;;;;;;12.20;1.92;;;7.10;99.90;;;;;;5045253;28;20029;-76
2023/11/17 00:57:44;;;;;;;13.02;2.33;;;7.00;99.90;;;;;;5045083;28;20340;-76
2023/11/17 01:00:11;;;;;;;15.05;2.28;;;6.90;99.90;;;;;;5045220;28;20025;-75
2023/11/17 01:02:38;;;;;;;7.38;1.80;;;6.90;99.90;;;;;;5044738;28;20187;-76
2023/11/17 01:05:07;;;;;;;9.93;2.17;;;6.80;99.90;;;;;;5044947;28;20036;-76
2023/11/17 01:07:33;;;;;;;10.10;2.70;;;6.60;99.90;;;;;;5028821;28;20044;-76
2023/11/17 01:09:59;;;;;;;8.55;2.45;;;6.50;99.90;;;;;;5044929;28;20210;-75
2023/11/17 01:12:25;;;;;;;9.88;2.30;;;6.40;99.90;;;;;;5028299;28;20060;-75
2023/11/17 01:14:51;;;;;;;11.38;2.00;;;6.30;99.90;;;;;;5044830;28;20064;-76
2023/11/17 01:17:17;;;;;;;11.98;2.28;;;6.30;99.90;;;;;;5044722;28;20029;-76
2023/11/17 01:19:45;;;;;;;11.52;1.90;;;6.30;99.90;;;;;;5045394;28;20233;-75
2023/11/17 01:22:11;;;;;;;12.63;2.45;;;6.20;99.90;;;;;;5044655;28;20100;-75
2023/11/17 01:24:38;;;;;;;10.75;1.80;;;6.10;99.90;;;;;;5044564;28;20215;-75
2023/11/17 01:27:04;;;;;;;10.75;2.15;;;6.10;99.90;;;;;;5028148;28;20033;-75
2023/11/17 01:29:31;;;;;;;10.25;3.35;;;6.00;99.90;;;;;;5045646;28;20037;-75
2023/11/17 01:31:57;;;;;;;7.13;2.13;;;6.00;99.90;;;;;;5044554;28;20163;-75
2023/11/17 01:34:23;;;;;;;9.05;1.90;;;5.90;99.90;;;;;;5044379;28;20294;-75
2023/11/17 01:36:50;;;;;;;12.05;2.13;;;5.90;99.90;;;;;;5044286;28;20291;-75
2023/11/17 01:39:18;;;;;;;7.10;1.90;;;5.90;99.90;;;;;;5045410;28;20080;-75
2023/11/17 01:41:47;;;;;;;11.35;2.03;;;5.90;99.90;;;;;;5044495;28;20021;-77
2023/11/17 01:44:13;;;;;;;9.98;1.90;;;5.90;99.90;;;;;;5044568;28;20037;-75
2023/11/17 01:46:38;;;;;;;13.57;2.10;;;5.80;99.90;;;;;;5044305;28;20326;-75
2023/11/17 01:49:04;;;;;;;11.73;1.77;;;5.80;99.90;;;;;;5044232;28;20128;-75
2023/11/17 01:51:31;;;;;;;7.75;1.90;;;5.70;99.90;;;;;;5044404;28;20279;-75
2023/11/17 01:53:57;;;;;;;8.52;1.63;;;5.60;99.90;;;;;;5044847;28;20051;-75
2023/11/17 01:56:24;;;;;;;10.30;2.22;;;5.50;99.90;;;;;;5044213;28;20021;-75
2023/11/17 01:58:50;;;;;;;11.93;2.72;;;5.50;99.90;;;;;;5044097;28;20333;-75
2023/11/17 02:01:16;;;;;;;11.07;2.05;;;5.40;99.90;;;;;;5044282;28;20032;-75
2023/11/17 02:03:42;;;;;;;9.63;2.00;;;5.50;99.90;;;;;;5044349;28;20294;-75
2023/11/17 02:06:21;;;;;;;14.13;2.10;;;5.50;99.90;;;;;;5044252;28;20033;-75
2023/11/17 02:08:55;;;;;;;11.38;2.30;;;5.60;99.90;;;;;;5044233;28;20075;-75
2023/11/17 02:11:27;;;;;;;13.38;2.35;;;5.70;99.90;;;;;;5044253;28;20033;-75
2023/11/17 02:14:01;;;;;;;13.27;2.38;;;5.70;99.90;;;;;;5045830;28;20053;-75
2023/11/17 02:16:30;;;;;;;8.00;1.65;;;5.80;99.90;;;;;;5048034;28;20108;-75
2023/11/17 02:18:57;;;;;;;6.63;1.65;;;5.80;99.90;;;;;;5047976;28;20048;-75
2023/11/17 02:21:30;;;;;;;14.77;2.10;;;5.80;99.90;;;;;;5048020;28;20095;-75
2023/11/17 02:24:00;;;;;;;9.98;2.00;;;5.90;99.90;;;;;;5048081;28;20089;-75
2023/11/17 02:26:42;;;;;;;10.53;2.40;;;5.90;99.90;;;;;;5047813;28;20092;-75
2023/11/17 02:29:27;;;;;;;13.02;2.10;;;5.90;99.90;;;;;;5047844;28;20086;-75
2023/11/17 02:31:53;;;;;;;14.27;2.50;;;5.90;99.90;;;;;;5048856;28;20030;-75
2023/11/17 02:34:24;;;;;;;7.68;2.20;;;5.80;99.90;;;;;;5047608;28;20032;-75
2023/11/17 02:36:51;;;;;;;10.25;2.20;;;5.70;99.90;;;;;;5047666;28;20048;-75
2023/11/17 02:39:25;;;;;;;9.57;2.10;;;5.50;99.90;;;;;;5047646;28;20082;-75
2023/11/17 02:42:01;;;;;;;9.85;1.90;;;5.50;99.90;;;;;;5047760;28;20175;-75
2023/11/17 02:44:28;;;;;;;14.23;2.20;;;5.50;99.90;;;;;;5047478;28;20029;-75
2023/11/17 02:47:03;;;;;;;14.32;2.15;;;5.60;99.90;;;;;;5047357;28;20048;-75
2023/11/17 02:49:34;;;;;;;14.05;2.22;;;5.70;99.90;;;;;;5031247;28;20081;-75
2023/11/17 02:52:03;;;;;;;11.65;2.30;;;5.70;99.90;;;;;;5047623;28;20100;-74
2023/11/17 02:54:29;;;;;;;8.63;2.08;;;5.70;99.90;;;;;;5047347;28;20064;-75
2023/11/17 02:56:55;;;;;;;8.95;1.90;;;5.80;99.90;;;;;;5048349;28;20033;-75
2023/11/17 02:59:20;;;;;;;11.95;2.20;;;5.80;99.90;;;;;;5047342;28;20021;-75
2023/11/17 03:01:46;;;;;;;16.90;2.25;;;5.90;99.90;;;;;;5047349;28;20033;-75
2023/11/17 03:04:15;;;;;;;9.73;2.13;;;6.00;99.90;;;;;;5048359;28;20087;-75
2023/11/17 03:06:45;;;;;;;12.23;2.25;;;6.00;99.90;;;;;;5031119;28;20045;-75
2023/11/17 03:09:14;;;;;;;;;;;6.10;99.90;;;;;;5047785;28;20186;-76
2023/11/17 03:11:41;;;;;;;8.95;2.05;;;6.10;99.90;;;;;;5030657;28;19916;-75
2023/11/17 03:14:08;;;;;;;15.77;2.08;;;6.10;99.90;;;;;;5030580;28;20041;-75
2023/11/17 03:16:35;;;;;;;12.63;2.80;;;6.10;99.90;;;;;;5030524;28;20029;-75
2023/11/17 03:19:01;;;;;;;13.93;2.30;;;6.10;99.90;;;;;;5046916;28;20025;-75
2023/11/17 03:21:28;;;;;;;17.55;2.55;;;6.10;99.90;;;;;;5030256;28;20345;-75
2023/11/17 03:23:53;;;;;;;8.68;1.90;;;6.10;99.90;;;;;;5046979;28;20083;-75
2023/11/17 03:26:19;;;;;;;9.52;1.75;;;6.10;99.90;;;;;;5045406;28;20029;-75
2023/11/17 03:28:45;;;;;;;15.25;1.85;;;6.10;99.90;;;;;;5046894;28;20033;-75
2023/11/17 03:31:14;;;;;;;15.10;1.77;;;6.10;99.90;;;;;;5030409;28;20034;-75
2023/11/17 03:33:45;;;;;;;22.40;2.50;;;6.20;99.90;;;;;;5048181;28;20026;-75
2023/11/17 03:36:19;;;;;;;13.98;1.92;;;6.20;99.90;;;;;;5047231;28;20044;-75
2023/11/17 03:38:45;;;;;;;6.28;2.38;;;6.20;99.90;;;;;;5046725;28;20102;-75
2023/11/17 03:41:13;;;;;;;12.10;2.28;;;6.30;99.90;;;;;;5046581;28;20022;-75
2023/11/17 03:43:39;;;;;;;12.40;2.05;;;6.30;99.90;;;;;;5030447;28;20021;-75
2023/11/17 03:46:05;;;;;;;15.15;2.17;;;6.20;99.90;;;;;;5030057;28;20080;-75
2023/11/17 03:48:31;;;;;;;8.63;1.80;;;6.20;99.90;;;;;;5046969;28;20314;-75
2023/11/17 03:50:56;;;;;;;14.57;2.10;;;6.20;99.90;;;;;;5029781;28;20043;-75
2023/11/17 03:53:22;;;;;;;17.77;2.95;;;6.20;99.90;;;;;;5046386;28;20064;-76
2023/11/17 03:55:48;;;;;;;20.23;4.65;;;6.20;99.90;;;;;;5046469;28;20302;-75
2023/11/17 03:58:15;;;;;;;16.15;2.72;;;6.20;99.90;;;;;;5046237;28;20297;-75
2023/11/17 04:00:41;;;;;;;15.20;2.53;;;6.30;99.90;;;;;;5047055;28;20025;-75
2023/11/17 04:03:08;;;;;;;18.33;2.22;;;6.40;99.90;;;;;;5046037;28;20287;-76
2023/11/17 04:05:34;;;;;;;14.10;2.08;;;6.50;99.90;;;;;;5047189;28;20281;-76
2023/11/17 04:08:00;;;;;;;17.85;2.97;;;6.60;99.90;;;;;;5046062;28;20033;-75
2023/11/17 04:10:26;;;;;;;14.30;2.15;;;6.80;99.90;;;;;;5029626;28;20109;-78
2023/11/17 04:12:52;;;;;;;13.23;2.08;;;7.00;99.90;;;;;;5045868;28;20350;-78
2023/11/17 04:15:18;;;;;;;17.23;2.92;;;7.10;99.90;;;;;;5046903;28;20033;-78
2023/11/17 04:17:44;;;;;;;16.45;2.53;;;7.20;99.90;;;;;;5045974;28;20079;-78
2023/11/17 04:20:14;;;;;;;10.65;2.35;;;7.20;99.90;;;;;;5045970;28;20120;-78
2023/11/17 04:22:40;;;;;;;;;;;7.30;99.90;;;;;;5046235;28;20033;-78
2023/11/17 04:25:06;;;;;;;22.92;3.15;;;7.50;99.90;;;;;;5046690;28;19975;-78
2023/11/17 04:27:32;;;;;;;9.40;1.67;;;7.60;99.90;;;;;;5045826;28;20040;-78
2023/11/17 04:29:58;;;;;;;16.65;2.05;;;7.80;99.90;;;;;;5045631;28;20029;-78
2023/11/17 04:32:23;;;;;;;15.60;3.05;;;7.90;99.90;;;;;;5045616;28;20036;-78
2023/11/17 04:34:49;;;;;;;13.85;1.67;;;8.00;99.90;;;;;;5045609;28;20029;-78
2023/11/17 04:37:15;;;;;;;15.60;2.13;;;8.10;99.90;;;;;;5045996;28;20033;-78
2023/11/17 04:39:41;;;;;;;18.42;2.65;;;8.20;99.90;;;;;;5029251;28;20025;-78
2023/11/17 04:42:07;;;;;;;17.33;2.40;;;8.30;99.90;;;;;;5045420;28;20278;-78
2023/11/17 04:44:33;;;;;;;16.42;2.97;;;8.40;99.90;;;;;;5045397;28;20072;-78
2023/11/17 04:46:59;;;;;;;14.48;2.45;;;8.40;99.90;;;;;;5012555;28;20030;-78
2023/11/17 04:49:25;;;;;;;17.50;2.42;;;8.40;99.90;;;;;;5045790;28;20045;-78
2023/11/17 04:51:50;;;;;;;22.50;2.45;;;8.50;99.90;;;;;;5045384;28;20092;-78
2023/11/17 04:54:16;;;;;;;17.90;2.40;;;8.50;99.90;;;;;;5028961;28;20036;-78
2023/11/17 04:56:42;;;;;;;14.50;2.13;;;8.60;99.90;;;;;;5045916;28;20082;-78
2023/11/17 04:59:11;;;;;;;14.70;2.50;;;8.60;99.90;;;;;;5012386;28;20198;-78
2023/11/17 05:01:37;;;;;;;8.70;1.67;;;8.70;99.90;;;;;;5045723;28;20075;-78
2023/11/17 05:04:04;;;;;;;12.93;2.28;;;8.70;99.90;;;;;;5045129;28;20127;-78
2023/11/17 05:06:29;;;;;;;15.85;2.13;;;8.70;99.90;;;;;;5028645;28;20034;-78
2023/11/17 05:08:55;;;;;;;11.48;1.70;;;8.70;99.90;;;;;;5045839;28;20044;-78
2023/11/17 05:11:23;;;;;;;12.52;2.10;;;8.80;99.90;;;;;;5012118;28;20357;-78
2023/11/17 05:13:49;;;;;;;10.82;1.58;;;8.80;99.90;;;;;;5045927;28;20056;-78
2023/11/17 05:16:15;;;;;;;11.98;1.98;;;8.80;99.90;;;;;;5044997;28;20271;-77
2023/11/17 05:18:42;;;;;;;7.75;1.67;;;8.80;99.90;;;;;;5028252;28;20079;-78
2023/11/17 05:21:09;;;;;;;9.35;1.77;;;8.70;99.90;;;;;;5044653;28;20033;-78
2023/11/17 05:23:38;;;;;;;9.63;1.90;;;8.60;99.90;;;;;;5045780;28;20128;-78
2023/11/17 05:26:06;;;;;;;7.88;1.73;;;8.60;99.90;;;;;;5013046;28;20026;-78
2023/11/17 05:28:32;;;;;;;10.73;2.00;;;8.50;99.90;;;;;;5028571;28;20037;-77
2023/11/17 05:31:01;;;;;;;16.00;2.20;;;8.50;99.90;;;;;;5044715;28;20059;-78
2023/11/17 05:33:28;;;;;;;7.65;2.08;;;8.40;99.90;;;;;;5028787;28;20041;-78
2023/11/17 05:35:53;;;;;;;9.57;1.85;;;8.30;99.90;;;;;;5028004;28;20067;-77
2023/11/17 05:38:19;;;;;;;16.23;2.92;;;8.20;99.90;;;;;;5027906;28;20037;-77
2023/11/17 05:40:45;;;;;;;10.73;2.90;;;8.20;99.90;;;;;;5045342;28;20025;-77
2023/11/17 05:43:12;;;;;;;10.60;1.83;;;8.20;99.90;;;;;;5045430;28;20041;-77
2023/11/17 05:45:38;;;;;;;8.48;1.88;;;8.20;99.90;;;;;;5044496;28;20093;-78
2023/11/17 05:48:05;;;;;;;14.38;2.15;;;8.20;99.90;;;;;;5044598;28;20182;-77
2023/11/17 05:50:31;;;;;;;10.45;1.90;;;8.10;99.90;;;;;;5045225;28;20397;-76
2023/11/17 05:52:57;;;;;;;20.92;2.72;;;8.20;99.90;;;;;;5027885;28;20030;-76
2023/11/17 05:55:23;;;;;;;13.93;2.33;;;8.10;99.90;;;;;;5027747;28;20085;-78
2023/11/17 05:57:50;;;;;;;10.23;1.80;;;8.10;99.90;;;;;;5011677;28;20029;-78
2023/11/17 06:00:18;;;;;;;13.23;1.90;;;8.10;99.90;;;;;;5044323;28;20037;-78
2023/11/17 06:02:44;;;;;;;11.65;2.13;;;8.10;99.90;;;;;;5012201;28;20022;-78
2023/11/17 06:05:13;;;;;;;10.00;1.45;;;8.10;99.90;;;;;;5045204;28;20078;-78
2023/11/17 06:07:38;;;;;;;13.13;2.15;;;8.00;99.90;;;;;;5012273;28;20058;-78
2023/11/17 06:10:05;;;;;;;13.65;2.15;;;7.90;99.90;;;;;;5027790;28;20132;-78
2023/11/17 06:12:31;;;;;;;8.75;1.88;;;7.90;99.90;;;;;;5045011;28;20277;-78
2023/11/17 06:14:57;;;;;;;16.58;2.47;;;7.90;99.90;;;;;;5044155;28;20025;-78
2023/11/17 06:17:24;;;;;;;12.57;2.22;;;7.90;99.90;;;;;;5044145;28;20190;-76
2023/11/17 06:19:50;;;;;;;10.20;1.80;;;7.80;99.90;;;;;;5044242;28;20337;-77
2023/11/17 06:22:16;;;;;;;13.88;2.25;;;7.80;99.90;;;;;;5045192;28;20025;-76
2023/11/17 06:24:41;;;;;;;11.20;1.90;;;7.80;99.90;;;;;;5044128;28;20085;-76
2023/11/17 06:27:10;;;;;;;9.95;1.70;;;7.80;99.90;;;;;;5044038;28;20033;-76
2023/11/17 06:29:36;;;;;;;11.03;2.50;;;7.80;99.90;;;;;;5028059;28;20309;-76
2023/11/17 06:32:02;;;;;;;12.57;2.10;;;7.80;99.90;;;;;;5027163;28;20057;-76
2023/11/17 06:34:28;;;;;;;15.73;2.53;;;7.80;99.90;;;;;;5043869;28;20053;-76
2023/11/17 06:36:54;;;;;;;12.20;1.92;;;7.80;99.90;;;;;;5010961;28;20111;-75
2023/11/17 06:39:23;;;;;;;10.82;1.85;;;7.80;99.90;;;;;;5027228;28;20083;-78
2023/11/17 06:41:51;;;;;;;12.53;2.00;;;7.80;99.90;;;;;;5044880;28;20055;-78
2023/11/17 06:44:21;;;;;;;15.18;2.25;;;7.70;99.90;;;;;;5043921;28;20299;-78
2023/11/17 06:46:47;;;;;;;12.85;1.80;;;7.70;99.90;;;;;;5011131;28;20164;-78
2023/11/17 06:49:14;;;;;;;12.38;2.20;;;7.70;99.90;;;;;;5043516;28;20057;-78
2023/11/17 06:51:41;;;;;;;13.20;1.80;;;7.60;99.90;;;;;;5011393;28;20057;-77
2023/11/17 06:54:13;;;;;;;9.55;1.90;;;7.60;99.90;;;;;;5027639;28;20056;-78
2023/11/17 06:56:40;;;;;;;10.27;2.22;;;7.50;99.90;;;;;;5028346;28;20033;-77
2023/11/17 06:59:19;;;;;;;16.65;3.72;;;7.50;99.90;;;;;;5043960;28;20209;-78
2023/11/17 07:01:51;;;;;;;24.02;6.30;;;7.50;99.90;;;;;;5048481;28;20035;-78
2023/11/17 07:04:17;;;;;;;13.13;3.53;;;7.50;99.90;;;;;;5031633;28;20353;-78
2023/11/17 07:06:43;;;;;;;21.38;5.22;;;7.50;99.90;;;;;;5030943;28;20025;-78
2023/11/17 07:09:23;;;;;;;16.77;4.05;;;7.40;99.90;;;;;;5047335;28;20092;-78
2023/11/17 07:11:54;;;;;;;11.27;2.35;;;7.40;99.90;;;;;;5048357;28;20029;-78
2023/11/17 07:14:20;;;;;;;23.17;6.75;;;7.30;99.90;;;;;;5030766;28;20025;-78
2023/11/17 07:16:49;;;;;;;35.15;9.63;;;7.40;99.90;;;;;;5047874;28;20040;-78
2023/11/17 07:19:17;;;;;;;30.58;10.20;;;7.40;99.90;;;;;;5046862;28;20084;-78
2023/11/17 07:21:47;;;;;;;26.05;7.95;;;7.40;99.90;;;;;;5030848;28;20033;-78
2023/11/17 07:24:14;;;;;;;16.90;3.58;;;7.40;99.90;;;;;;5047118;28;20026;-79
2023/11/17 07:26:40;;;;;;;12.23;3.55;;;7.40;99.90;;;;;;5046884;28;20067;-78
2023/11/17 07:29:06;;;;;;;19.00;5.82;;;7.40;99.90;;;;;;5046875;28;20025;-78
2023/11/17 07:31:37;;;;;;;20.88;5.40;;;7.40;99.90;;;;;;5030441;28;20029;-78
2023/11/17 07:34:07;;;;;;;15.70;3.75;;;7.40;99.90;;;;;;5047035;28;20021;-78
2023/11/17 07:36:37;;;;;;;14.45;3.70;;;7.40;99.90;;;;;;5047842;28;20072;-79
2023/11/17 07:39:03;;;;;;;9.98;2.50;;;7.40;99.90;;;;;;5030786;28;20083;-78
2023/11/17 07:41:29;;;;;;;11.38;2.97;;;7.50;99.90;;;;;;5047642;28;20290;-78
2023/11/17 07:43:56;;;;;;;9.85;1.95;;;7.50;99.90;;;;;;5029847;28;20323;-78
2023/11/17 07:46:25;;;;;;;9.60;1.35;;;7.60;99.90;;;;;;5029956;28;20029;-77
2023/11/17 07:48:51;;;;;;;7.72;1.95;;;7.70;99.90;;;;;;5046115;28;20052;-78
2023/11/17 07:51:17;;;;;;;9.20;1.70;;;7.80;99.90;;;;;;5047314;28;20089;-78
2023/11/17 07:53:42;;;;;;;7.53;1.73;;;7.80;99.90;;;;;;5029936;28;20237;-78
2023/11/17 07:56:11;;;;;;;5.15;1.50;;;7.90;99.90;;;;;;5029559;28;20242;-78
2023/11/17 07:58:37;;;;;;;11.32;1.98;;;7.90;99.90;;;;;;5030223;28;20061;-78
2023/11/17 08:01:04;;;;;;;9.52;1.75;;;7.90;99.90;;;;;;5046151;28;20033;-78
2023/11/17 08:03:29;;;;;;;11.20;1.90;;;7.90;99.90;;;;;;5047143;28;20183;-78
2023/11/17 08:05:59;;;;;;;10.82;1.80;;;7.90;99.90;;;;;;5047035;28;20026;-78
2023/11/17 08:08:25;;;;;;;10.95;2.45;;;8.00;99.90;;;;;;5046717;28;20029;-78
2023/11/17 08:10:51;;;;;;;14.57;1.90;;;8.10;99.90;;;;;;5045211;28;20045;-77
2023/11/17 08:13:17;;;;;;;10.15;1.77;;;8.10;99.90;;;;;;5046445;28;20040;-78
2023/11/17 08:15:42;;;;;;;7.75;2.00;;;8.20;99.90;;;;;;5046905;28;20033;-78
2023/11/17 08:18:12;;;;;;;13.32;3.00;;;8.20;99.90;;;;;;5046891;28;20049;-78
2023/11/17 08:20:41;;;;;;;12.82;2.50;;;8.20;99.90;;;;;;5045705;28;20096;-78
2023/11/17 08:23:10;;;;;;;8.52;2.00;;;8.20;99.90;;;;;;5029694;28;20328;-78
2023/11/17 08:25:36;;;;;;;10.23;2.63;;;8.20;99.90;;;;;;5045597;28;20033;-79
2023/11/17 08:28:03;;;;;;;7.78;1.98;;;8.30;99.90;;;;;;5045542;28;20113;-78
2023/11/17 08:30:29;;;;;;;13.60;2.00;;;8.30;99.90;;;;;;5028974;28;20033;-78
2023/11/17 08:32:55;;;;;;;6.60;1.60;;;8.30;99.90;;;;;;5046285;28;20029;-78
2023/11/17 08:35:23;;;;;;;11.07;2.65;;;8.40;99.90;;;;;;5045297;28;20029;-78
2023/11/17 08:37:52;;;;;;;8.57;1.98;;;8.40;99.90;;;;;;5045333;28;20097;-78
2023/11/17 08:40:18;;;;;;;7.88;1.63;;;8.50;99.90;;;;;;5029331;28;20087;-78
2023/11/17 08:42:44;;;;;;;6.70;1.70;;;8.60;99.90;;;;;;5045625;28;20040;-78
2023/11/17 08:45:12;;;;;;;5.30;1.30;;;8.70;99.90;;;;;;5028646;28;20021;-78
2023/11/17 08:47:38;;;;;;;10.70;1.70;;;8.70;99.90;;;;;;5028816;28;20029;-78
2023/11/17 08:50:09;;;;;;;5.45;1.58;;;8.70;99.90;;;;;;5011897;28;20056;-78
2023/11/17 08:52:37;;;;;;;7.97;1.60;;;8.90;99.90;;;;;;5044732;28;20044;-78
2023/11/17 08:55:13;;;;;;;10.73;2.88;;;8.90;99.90;;;;;;5045005;28;20039;-78
2023/11/17 08:57:44;;;;;;;8.52;1.80;;;9.00;99.90;;;;;;5044984;28;20040;-78
2023/11/17 09:00:14;;;;;;;8.60;1.77;;;9.10;99.90;;;;;;5044974;28;20056;-78
2023/11/17 09:02:46;;;;;;;5.78;1.35;;;9.20;99.90;;;;;;5028849;28;20026;-79
2023/11/17 09:05:13;;;;;;;9.10;1.50;;;9.10;99.90;;;;;;5028522;28;20025;-77
2023/11/17 09:07:44;;;;;;;9.60;1.95;;;9.10;99.90;;;;;;5028496;28;20018;-77
2023/11/17 09:10:11;;;;;;;6.40;1.20;;;9.00;99.90;;;;;;5044906;28;20025;-77
2023/11/17 09:12:39;;;;;;;8.27;1.67;;;9.00;99.90;;;;;;5045616;28;20025;-77
2023/11/17 09:15:09;;;;;;;8.85;1.88;;;8.90;99.90;;;;;;5028812;28;20036;-77
2023/11/17 09:17:35;;;;;;;10.73;1.60;;;9.10;99.90;;;;;;5044468;28;20097;-77
2023/11/17 09:20:08;;;;;;;6.20;1.70;;;9.00;99.90;;;;;;5044706;28;20148;-77
2023/11/17 09:22:34;;;;;;;9.13;1.80;;;8.90;99.90;;;;;;5044507;28;20342;-79
2023/11/17 09:24:59;;;;;;;6.43;1.50;;;8.90;99.90;;;;;;5044510;28;20040;-76
2023/11/17 09:27:26;;;;;;;5.70;2.20;;;8.70;99.90;;;;;;5044314;28;20030;-76
2023/11/17 09:29:51;;;;;;;8.20;1.70;;;8.70;99.90;;;;;;5044449;28;20289;-76
2023/11/17 09:32:17;;;;;;;11.23;1.92;;;8.80;99.90;;;;;;5045506;28;20036;-77
2023/11/17 09:34:43;;;;;;;5.43;1.33;;;8.80;99.90;;;;;;5027809;28;20083;-77
2023/11/17 09:37:11;;;;;;;8.52;2.30;;;8.80;99.90;;;;;;5027767;28;20348;-77
2023/11/17 09:39:38;;;;;;;6.95;1.40;;;8.80;99.90;;;;;;5028110;28;20032;-76
2023/11/17 09:42:04;;;;;;;6.72;1.80;;;8.90;99.90;;;;;;5044305;28;20229;-77
2023/11/17 09:44:30;;;;;;;8.05;1.88;;;9.00;99.90;;;;;;5045012;28;20025;-77
2023/11/17 09:47:02;;;;;;;11.25;2.30;;;9.10;99.90;;;;;;5044103;28;20100;-76
2023/11/17 09:49:28;;;;;;;14.80;3.00;;;9.30;99.90;;;;;;5027570;28;20357;-77
2023/11/17 09:51:55;;;;;;;10.23;1.83;;;9.40;99.90;;;;;;5027796;28;20082;-76
2023/11/17 09:54:23;;;;;;;5.75;1.75;;;9.40;99.90;;;;;;5044009;28;20029;-77
2023/11/17 09:56:50;;;;;;;6.40;1.40;;;9.60;99.90;;;;;;5044189;28;20285;-76
2023/11/17 09:59:17;;;;;;;5.90;1.48;;;9.70;99.90;;;;;;5027566;28;20030;-76
2023/11/17 10:01:43;;;;;;;7.20;2.60;;;9.80;99.90;;;;;;5027612;28;20049;-76
2023/11/17 10:04:09;;;;;;;5.00;1.40;;;10.00;99.90;;;;;;5011387;28;20335;-76
2023/11/17 10:06:34;;;;;;;4.72;1.50;;;10.20;99.90;;;;;;5027533;28;20022;-77
2023/11/17 10:09:00;;;;;;;5.97;1.17;;;10.30;99.90;;;;;;5043870;28;20045;-76
2023/11/17 10:11:26;;;;;;;6.43;1.98;;;10.20;99.90;;;;;;5027621;28;20045;-77
2023/11/17 10:13:52;;;;;;;5.30;1.40;;;10.10;99.90;;;;;;5044081;28;20033;-79
2023/11/17 10:16:18;;;;;;;8.63;1.73;;;10.10;99.90;;;;;;5027480;28;20059;-75
2023/11/17 10:18:50;;;;;;;8.18;1.70;;;10.00;99.90;;;;;;5027120;28;20191;-76
2023/11/17 10:21:15;;;;;;;6.18;1.45;;;10.00;99.90;;;;;;5044037;28;20021;-77
2023/11/17 10:23:42;;;;;;;7.22;1.88;;;10.10;99.90;;;;;;5027334;28;20041;-81
2023/11/17 10:26:07;;;;;;;5.68;1.67;;;10.10;99.90;;;;;;5043696;28;20160;-77
2023/11/17 10:28:35;;;;;;;3.88;1.30;;;10.20;99.90;;;;;;5043624;28;20150;-77
2023/11/17 10:31:01;;;;;;;5.03;1.55;;;10.30;99.90;;;;;;5027619;28;20057;-77
2023/11/17 10:33:34;;;;;;;6.43;1.30;;;10.40;99.90;;;;;;5044850;28;20278;-79
2023/11/17 10:36:15;;;;;;;7.15;1.52;;;10.40;99.90;;;;;;5031168;28;20095;-77
2023/11/17 10:38:45;;;;;;;10.93;1.80;;;10.50;99.90;;;;;;5047507;28;20097;-77
2023/11/17 10:41:32;;;;;;;6.95;1.42;;;10.50;99.90;;;;;;5047459;28;20041;-77
2023/11/17 10:44:02;;;;;;;12.40;5.03;;;10.40;99.90;;;;;;5047330;28;20025;-76
2023/11/17 10:46:29;;;;;;;8.27;1.30;;;10.30;99.90;;;;;;5048100;28;20031;-77
2023/11/17 10:49:01;;;;;;;5.47;1.67;;;10.10;99.90;;;;;;5047762;28;20112;-77
2023/11/17 10:51:27;;;;;;;12.95;1.77;;;10.00;99.90;;;;;;5047364;28;20247;-75
2023/11/17 10:54:12;;;;;;;8.80;1.83;;;10.10;99.90;;;;;;5030878;28;20029;-76
2023/11/17 10:56:38;;;;;;;10.68;2.20;;;10.00;99.90;;;;;;5031016;28;20040;-76
2023/11/17 10:59:04;;;;;;;5.47;2.30;;;10.00;99.90;;;;;;5047622;28;20080;-77
2023/11/17 11:01:31;;;;;;;9.48;2.35;;;10.10;99.90;;;;;;5047845;28;20033;-77
2023/11/17 11:03:57;;;;;;;8.13;2.05;;;10.10;99.90;;;;;;5046892;28;20017;-76
2023/11/17 11:06:26;;;;;;;7.07;1.90;;;10.10;99.90;;;;;;5030449;28;20190;-76
2023/11/17 11:08:55;;;;;;;5.90;1.58;;;10.20;99.90;;;;;;5014447;28;20198;-76
2023/11/17 11:11:23;;;;;;;5.93;1.73;;;10.30;99.90;;;;;;5014411;28;20247;-76
2023/11/17 11:14:00;;;;;;;7.97;2.17;;;10.30;99.90;;;;;;5047797;28;20049;-76
2023/11/17 11:16:31;;;;;;;6.38;1.60;;;10.30;99.90;;;;;;5047074;28;20033;-77
2023/11/17 11:18:58;;;;;;;5.03;1.50;;;10.30;99.90;;;;;;5047057;28;20033;-77
2023/11/17 11:21:27;;;;;;;6.70;1.60;;;10.30;99.90;;;;;;5047870;28;20026;-77
2023/11/17 11:23:59;;;;;;;7.10;2.28;;;10.30;99.90;;;;;;5015102;28;20025;-77
2023/11/17 11:26:25;;;;;;;10.23;1.70;;;10.40;99.90;;;;;;5030927;28;20022;-77
2023/11/17 11:28:52;;;;;;;5.25;1.20;;;10.50;99.90;;;;;;5030004;28;20294;-77
2023/11/17 11:31:19;;;;;;;7.93;1.50;;;10.60;99.90;;;;;;5030339;28;20021;-76
2023/11/17 11:33:45;;;;;;;10.75;1.60;;;10.80;99.90;;;;;;5030245;28;20192;-77
2023/11/17 11:36:11;;;;;;;4.47;1.70;;;11.80;99.90;;;;;;5046335;28;20029;-79
2023/11/17 11:38:47;;;;;;;3.78;1.35;;;13.20;99.90;;;;;;5046156;28;20021;-79
2023/11/17 11:41:15;;;;;;;6.43;1.73;;;14.90;99.90;;;;;;5046512;28;20033;-76
2023/11/17 11:43:44;;;;;;;5.43;1.55;;;16.10;99.90;;;;;;5030036;28;20064;-77
2023/11/17 11:46:10;;;;;;;3.17;1.52;;;17.10;91.40;;;;;;5029070;28;20014;-77
2023/11/17 11:48:37;;;;;;;5.72;1.50;;;17.80;75.60;;;;;;5045794;28;20121;-77
2023/11/17 11:51:10;;;;;;;5.38;1.23;;;18.50;61.20;;;;;;5029444;28;20294;-77
2023/11/17 11:53:44;;;;;;;5.88;1.50;;;19.10;53.60;;;;;;5045720;28;20036;-77
2023/11/17 11:56:14;;;;;;;5.60;2.15;;;18.40;53.80;;;;;;5046636;28;20037;-77
2023/11/17 11:58:44;;;;;;;13.48;1.83;;;18.90;53.20;;;;;;5029576;28;20202;-77
2023/11/17 12:01:10;;;;;;;;;;;19.20;47.80;;;;;;5047177;28;20026;-76
2023/11/17 12:03:36;;;;;;;5.47;2.53;;;19.30;43.20;;;;;;5047058;28;19913;-77
2023/11/17 12:06:03;;;;;;;6.55;2.63;;;19.50;41.80;;;;;;5045949;28;20026;-77
2023/11/17 12:08:31;;;;;;;4.90;1.70;;;18.90;43.90;;;;;;5045622;28;20312;-77
2023/11/17 12:11:18;;;;;;;6.13;1.58;;;18.70;51.10;;;;;;5046173;28;20215;-77
2023/11/17 12:13:47;;;;;;;5.07;2.10;;;18.00;53.10;;;;;;5046654;28;20230;-76
2023/11/17 12:16:18;;;;;;;10.80;2.20;;;18.00;52.00;;;;;;5045596;28;20368;-77
2023/11/17 12:18:50;;;;;;;9.52;2.80;;;17.90;51.40;;;;;;5028921;28;20033;-77
2023/11/17 12:21:20;;;;;;;8.27;3.30;;;18.10;54.60;;;;;;5045277;28;20044;-76
2023/11/17 12:24:07;;;;;;;8.43;3.33;;;18.20;53.80;;;;;;5045247;28;20088;-77
2023/11/17 12:26:33;;;;;;;9.52;3.28;;;17.40;54.60;;;;;;5045150;28;20030;-77
2023/11/17 12:29:00;;;;;;;8.85;2.53;;;15.90;62.00;;;;;;5028600;28;20286;-76
2023/11/17 12:31:25;;;;;;;9.98;2.25;;;14.90;87.10;;;;;;5045936;28;20029;-76
2023/11/17 12:33:53;;;;;;;8.90;3.70;;;14.10;99.20;;;;;;5046332;28;20101;-76
2023/11/17 12:36:20;;;;;;;10.65;3.30;;;13.70;99.90;;;;;;5045896;28;20033;-76
2023/11/17 12:38:55;;;;;;;7.28;2.30;;;13.20;99.90;;;;;;5028765;28;20075;-76
2023/11/17 12:41:25;;;;;;;12.00;2.83;;;12.90;99.90;;;;;;5045248;28;20030;-76
2023/11/17 12:43:51;;;;;;;10.35;2.78;;;12.80;99.90;;;;;;5044981;28;20025;-76
2023/11/17 12:46:17;;;;;;;10.88;3.58;;;12.80;99.90;;;;;;5044767;28;20163;-76
2023/11/17 12:48:43;;;;;;;10.43;2.65;;;12.80;99.90;;;;;;5027937;28;20060;-76
2023/11/17 12:51:21;;;;;;;11.93;2.88;;;12.70;99.90;;;;;;5045582;28;20222;-75
2023/11/17 12:53:47;;;;;;;6.57;1.35;;;12.50;99.90;;;;;;5044717;28;20052;-75